createdAt,value
2022-09-18T00:02:41.912Z,100540.53
2022-09-18T00:05:43.383Z,100548.34
2022-09-18T00:08:45.069Z,100550.84
2022-09-18T00:11:48.128Z,100546.94
2022-09-18T00:14:49.853Z,100530.31
2022-09-18T00:17:51.227Z,100545.91
2022-09-18T00:20:52.624Z,100544.22
2022-09-18T00:23:56.073Z,100537.09
2022-09-18T00:26:57.563Z,100538.81
2022-09-18T00:29:58.983Z,100546.88
2022-09-18T00:33:00.359Z,100536.84
2022-09-18T00:36:04.204Z,100536.38
2022-09-18T00:39:06.654Z,100538.59
2022-09-18T00:42:12.065Z,100537.16
2022-09-18T00:45:13.654Z,100542.13
2022-09-18T00:48:15.038Z,100543.00
2022-09-18T00:51:17.903Z,100534.31
2022-09-18T00:54:24.381Z,100536.84
2022-09-18T00:57:30.957Z,100531.41
2022-09-18T01:00:32.662Z,100532.75
2022-09-18T01:03:34.488Z,100536.09
2022-09-18T01:06:46.399Z,100538.56
2022-09-18T01:10:10.645Z,100537.09
2022-09-18T01:13:45.438Z,100534.03
2022-09-18T01:17:05.119Z,100535.50
2022-09-18T01:20:25.492Z,100539.50
2022-09-18T01:23:36.215Z,100542.16
2022-09-18T01:26:58.339Z,100536.75
2022-09-18T01:30:05.647Z,100535.03
2022-09-18T01:33:15.375Z,100548.00
2022-09-18T01:36:21.587Z,100539.28
2022-09-18T01:39:34.280Z,100537.56
2022-09-18T01:42:37.990Z,100548.81
2022-09-18T01:45:46.100Z,100542.56
2022-09-18T01:48:55.424Z,100539.75
2022-09-18T01:52:05.930Z,100540.84
2022-09-18T01:55:16.251Z,100542.44
2022-09-18T01:58:21.065Z,100539.38
2022-09-18T02:01:27.363Z,100528.56
2022-09-18T02:04:32.942Z,100526.97
2022-09-18T02:07:47.221Z,100524.28
2022-09-18T02:10:55.991Z,100535.97
2022-09-18T02:14:02.114Z,100524.03
2022-09-18T02:17:28.923Z,100516.66
2022-09-18T02:20:34.297Z,100536.63
2022-09-18T02:23:38.813Z,100525.25
2022-09-18T02:26:41.025Z,100528.81
2022-09-18T02:29:45.345Z,100525.25
2022-09-18T02:32:47.226Z,100527.91
2022-09-18T02:35:57.767Z,100521.69
2022-09-18T02:39:14.832Z,100534.09
2022-09-18T02:42:23.054Z,100527.72
2022-09-18T02:45:36.681Z,100517.63
2022-09-18T02:49:04.127Z,100519.94
2022-09-18T02:52:17.781Z,100512.59
2022-09-18T02:55:40.452Z,100503.34
2022-09-18T02:58:47.789Z,100503.34
2022-09-18T03:01:49.859Z,100503.22
2022-09-18T03:04:54.725Z,100511.38
2022-09-18T03:08:02.927Z,100514.25
2022-09-18T03:11:06.333Z,100508.41
2022-09-18T03:14:08.212Z,100513.00
2022-09-18T03:17:10.305Z,100511.44
2022-09-18T03:20:11.739Z,100512.59
2022-09-18T03:23:13.137Z,100514.13
2022-09-18T03:26:15.968Z,100520.09
2022-09-18T03:29:17.932Z,100527.03
2022-09-18T03:32:19.356Z,100522.34
2022-09-18T03:35:23.884Z,100529.34
2022-09-18T03:38:25.358Z,100522.25
2022-09-18T03:41:27.962Z,100511.78
2022-09-18T03:44:30.946Z,100516.19
2022-09-18T03:47:36.649Z,100519.66
2022-09-18T03:50:38.406Z,100511.69
2022-09-18T03:53:41.742Z,100507.09
2022-09-18T03:56:57.160Z,100504.59
2022-09-18T04:00:09.967Z,100501.16
2022-09-18T04:03:17.414Z,100498.91
2022-09-18T04:06:51.668Z,100505.97
2022-09-18T04:10:13.353Z,100511.13
2022-09-18T04:13:15.701Z,100520.09
2022-09-18T04:16:17.780Z,100536.00
2022-09-18T04:19:19.590Z,100525.38
2022-09-18T04:22:22.114Z,100529.63
2022-09-18T04:25:23.640Z,100528.88
2022-09-18T04:28:25.954Z,100524.38
2022-09-18T04:31:29.340Z,100527.13
2022-09-18T04:34:35.073Z,100530.75
2022-09-18T04:37:36.846Z,100521.69
2022-09-18T04:40:38.555Z,100527.91
2022-09-18T04:43:40.040Z,100522.34
2022-09-18T04:46:42.534Z,100527.22
2022-09-18T04:49:45.078Z,100525.25
2022-09-18T04:52:47.242Z,100532.31
2022-09-18T04:55:49.261Z,100535.81
2022-09-18T04:58:52.313Z,100522.78
2022-09-18T05:01:53.803Z,100515.78
2022-09-18T05:04:55.233Z,100523.78
2022-09-18T05:08:06.440Z,100523.78
2022-09-18T05:11:07.948Z,100516.78
2022-09-18T05:14:11.597Z,100526.56
2022-09-18T05:17:15.258Z,100514.69
2022-09-18T05:20:30.954Z,100520.09
2022-09-18T05:23:38.812Z,100528.03
2022-09-18T05:26:40.272Z,100533.47
2022-09-18T05:29:44.636Z,100531.63
2022-09-18T05:33:02.008Z,100527.44
2022-09-18T05:36:05.454Z,100534.91
2022-09-18T05:39:07.286Z,100535.56
2022-09-18T05:42:09.825Z,100528.72
2022-09-18T05:45:12.095Z,100532.41
2022-09-18T05:48:13.581Z,100543.91
2022-09-18T05:51:15.284Z,100549.19
2022-09-18T05:54:16.813Z,100550.06
2022-09-18T05:57:23.626Z,100554.31
2022-09-18T06:00:26.505Z,100551.75
2022-09-18T06:03:35.879Z,100546.50
2022-09-18T06:06:37.355Z,100548.34
2022-09-18T06:09:39.652Z,100547.19
2022-09-18T06:12:41.134Z,100540.66
2022-09-18T06:15:47.754Z,100537.09
2022-09-18T06:18:50.809Z,100544.81
2022-09-18T06:21:52.420Z,100540.44
2022-09-18T06:24:55.875Z,100551.69
2022-09-18T06:28:06.401Z,100553.16
2022-09-18T06:31:07.900Z,100541.03
2022-09-18T06:34:22.573Z,100552.31
2022-09-18T06:37:24.693Z,100546.88
2022-09-18T06:40:53.663Z,100540.88
2022-09-18T06:44:13.876Z,100549.44
2022-09-18T06:47:19.974Z,100547.97
2022-09-18T06:50:23.491Z,100545.16
2022-09-18T06:53:26.320Z,100546.44
2022-09-18T06:56:33.603Z,100556.09
2022-09-18T06:59:35.213Z,100549.00
2022-09-18T07:02:37.796Z,100558.41
2022-09-18T07:06:11.389Z,100550.59
2022-09-18T07:09:18.807Z,100554.78
2022-09-18T07:12:36.251Z,100554.00
2022-09-18T07:15:41.116Z,100550.16
2022-09-18T07:18:46.568Z,100557.31
2022-09-18T07:21:48.369Z,100559.72
2022-09-18T07:24:49.800Z,100564.66
2022-09-18T07:27:51.423Z,100568.22
2022-09-18T07:30:55.275Z,100567.72
2022-09-18T07:33:56.713Z,100566.19
2022-09-18T07:37:01.860Z,100573.41
2022-09-18T07:40:09.436Z,100577.94
2022-09-18T07:43:29.772Z,100575.19
2022-09-18T07:46:31.523Z,100577.78
2022-09-18T07:49:38.769Z,100576.72
2022-09-18T07:52:54.162Z,100572.59
2022-09-18T07:56:00.007Z,100584.03
2022-09-18T07:59:01.386Z,100589.91
2022-09-18T08:02:07.031Z,100584.03
2022-09-18T08:05:10.881Z,100584.84
2022-09-18T08:08:17.902Z,100594.28
2022-09-18T08:11:27.386Z,100586.88
2022-09-18T08:14:30.820Z,100583.75
2022-09-18T08:17:49.968Z,100586.88
2022-09-18T08:21:10.674Z,100577.97
2022-09-18T08:24:21.778Z,100575.13
2022-09-18T08:27:24.461Z,100573.06
2022-09-18T08:30:27.675Z,100575.97
2022-09-18T08:33:31.348Z,100582.75
2022-09-18T08:36:34.511Z,100581.53
2022-09-18T08:39:43.356Z,100586.59
2022-09-18T08:43:16.280Z,100584.41
2022-09-18T08:46:43.228Z,100582.69
2022-09-18T08:49:51.533Z,100577.19
2022-09-18T08:53:03.422Z,100578.00
2022-09-18T08:56:27.876Z,100580.03
2022-09-18T09:00:03.283Z,100582.78
2022-09-18T09:03:16.693Z,100579.91
2022-09-18T09:06:32.579Z,100581.16
2022-09-18T09:09:55.561Z,100584.06
2022-09-18T09:13:04.799Z,100577.72
2022-09-18T09:16:18.431Z,100583.00
2022-09-18T09:19:41.152Z,100586.31
2022-09-18T09:22:57.889Z,100577.22
2022-09-18T09:26:06.820Z,100581.00
2022-09-18T09:29:46.196Z,100588.94
2022-09-18T09:32:53.917Z,100584.66
2022-09-18T09:36:15.578Z,100583.75
2022-09-18T09:39:35.404Z,100579.31
2022-09-18T09:43:11.415Z,100580.97
2022-09-18T09:46:47.979Z,100585.91
2022-09-18T09:50:08.429Z,100577.59
2022-09-18T09:53:12.990Z,100569.97
2022-09-18T09:56:31.973Z,100569.09
2022-09-18T09:59:56.988Z,100582.03
2022-09-18T10:03:31.849Z,100577.81
2022-09-18T10:06:58.081Z,100571.75
2022-09-18T10:10:15.889Z,100572.41
2022-09-18T10:13:21.817Z,100573.41
2022-09-18T10:16:54.890Z,100571.97
2022-09-18T10:19:56.589Z,100555.97
2022-09-18T10:23:03.516Z,100555.28
2022-09-18T10:26:06.093Z,100556.59
2022-09-18T10:29:09.994Z,100558.06
2022-09-18T10:32:41.533Z,100559.03
2022-09-18T10:35:56.244Z,100562.44
2022-09-18T10:38:59.734Z,100556.59
2022-09-18T10:42:16.676Z,100556.75
2022-09-18T10:45:27.744Z,100554.66
2022-09-18T10:48:43.913Z,100560.06
2022-09-18T10:51:45.365Z,100556.09
2022-09-18T10:55:12.428Z,100556.47
2022-09-18T10:58:17.236Z,100549.38
2022-09-18T11:01:26.135Z,100544.06
2022-09-18T11:04:32.053Z,100530.09
2022-09-18T11:07:34.973Z,100532.31
2022-09-18T11:10:37.591Z,100514.50
2022-09-18T11:13:59.583Z,100527.91
2022-09-18T11:17:05.709Z,100525.75
2022-09-18T11:20:23.543Z,100509.63
2022-09-18T11:23:35.515Z,100496.00
2022-09-18T11:26:49.373Z,100499.91
2022-09-18T11:29:51.572Z,100496.47
2022-09-18T11:32:58.549Z,100505.91
2022-09-18T11:36:07.711Z,100491.06
2022-09-18T11:39:24.419Z,100490.53
2022-09-18T11:42:27.661Z,100503.38
2022-09-18T11:45:52.946Z,100502.31
2022-09-18T11:49:05.504Z,100495.13
2022-09-18T11:52:25.938Z,100496.25
2022-09-18T11:55:41.298Z,100489.06
2022-09-18T11:58:49.367Z,100485.44
2022-09-18T12:01:57.484Z,100487.16
2022-09-18T12:05:33.690Z,100484.75
2022-09-18T12:08:53.186Z,100478.88
2022-09-18T12:12:04.102Z,100470.16
2022-09-18T12:15:24.006Z,100470.47
2022-09-18T12:18:33.807Z,100464.97
2022-09-18T12:21:42.865Z,100463.88
2022-09-18T12:24:46.164Z,100449.97
2022-09-18T12:27:48.771Z,100450.75
2022-09-18T12:31:06.235Z,100459.72
2022-09-18T12:34:25.033Z,100466.84
2022-09-18T12:37:35.719Z,100465.91
2022-09-18T12:40:53.061Z,100453.91
2022-09-18T12:44:10.275Z,100452.00
2022-09-18T12:47:30.332Z,100448.78
2022-09-18T12:50:45.463Z,100455.75
2022-09-18T12:54:06.638Z,100448.72
2022-09-18T12:57:43.616Z,100445.53
2022-09-18T13:00:48.900Z,100450.19
2022-09-18T13:03:52.627Z,100445.66
2022-09-18T13:07:10.442Z,100448.03
2022-09-18T13:10:27.221Z,100441.63
2022-09-18T13:13:34.585Z,100444.00
2022-09-18T13:17:16.769Z,100428.06
2022-09-18T13:20:30.653Z,100433.28
2022-09-18T13:23:37.876Z,100421.84
2022-09-18T13:26:40.780Z,100425.13
2022-09-18T13:29:51.419Z,100424.09
2022-09-18T13:32:54.240Z,100424.25
2022-09-18T13:35:57.404Z,100407.44
2022-09-18T13:39:02.555Z,100409.84
2022-09-18T13:42:04.182Z,100408.50
2022-09-18T13:45:28.000Z,100399.00
2022-09-18T13:48:45.848Z,100408.84
2022-09-18T13:51:47.316Z,100399.28
2022-09-18T13:55:13.565Z,100398.03
2022-09-18T13:58:55.441Z,100390.84
2022-09-18T14:02:02.317Z,100393.16
2022-09-18T14:05:33.415Z,100391.97
2022-09-18T14:08:38.436Z,100390.25
2022-09-18T14:11:39.835Z,100403.53
2022-09-18T14:14:42.477Z,100396.34
2022-09-18T14:18:06.775Z,100395.75
2022-09-18T14:21:17.177Z,100392.91
2022-09-18T14:24:40.372Z,100395.97
2022-09-18T14:28:03.242Z,100387.38
2022-09-18T14:31:18.638Z,100385.44
2022-09-18T14:34:23.433Z,100392.28
2022-09-18T14:37:28.691Z,100380.88
2022-09-18T14:40:31.149Z,100392.81
2022-09-18T14:43:32.625Z,100389.63
2022-09-18T14:46:34.114Z,100383.53
2022-09-18T14:49:36.703Z,100373.00
2022-09-18T14:52:43.957Z,100374.69
2022-09-18T14:55:52.047Z,100371.13
2022-09-18T14:58:53.522Z,100378.41
2022-09-18T15:02:17.034Z,100372.50
2022-09-18T15:05:20.555Z,100367.28
2022-09-18T15:08:26.829Z,100370.44
2022-09-18T15:11:37.703Z,100361.94
2022-09-18T15:14:48.946Z,100365.13
2022-09-18T15:17:51.104Z,100355.88
2022-09-18T15:20:54.641Z,100356.06
2022-09-18T15:23:57.208Z,100347.06
2022-09-18T15:27:01.384Z,100343.44
2022-09-18T15:30:11.209Z,100345.47
2022-09-18T15:33:19.080Z,100341.81
2022-09-18T15:36:27.316Z,100344.38
2022-09-18T15:39:37.912Z,100335.28
2022-09-18T15:42:41.727Z,100330.97
2022-09-18T15:46:02.563Z,100325.41
2022-09-18T15:49:28.284Z,100338.25
2022-09-18T15:52:43.300Z,100339.00
2022-09-18T15:55:57.203Z,100337.94
2022-09-18T15:59:00.098Z,100329.97
2022-09-18T16:02:08.047Z,100323.75
2022-09-18T16:05:15.181Z,100315.00
2022-09-18T16:08:19.951Z,100318.03
2022-09-18T16:11:45.910Z,100319.00
2022-09-18T16:14:58.661Z,100315.44
2022-09-18T16:18:04.581Z,100319.28
2022-09-18T16:21:08.736Z,100310.38
2022-09-18T16:24:28.328Z,100316.72
2022-09-18T16:27:29.750Z,100307.94
2022-09-18T16:30:31.199Z,100309.59
2022-09-18T16:33:33.774Z,100306.53
2022-09-18T16:36:41.341Z,100306.44
2022-09-18T16:39:42.804Z,100304.84
2022-09-18T16:42:44.712Z,100300.59
2022-09-18T16:45:48.987Z,100306.50
2022-09-18T16:48:52.028Z,100299.22
2022-09-18T16:51:55.546Z,100303.84
2022-09-18T16:54:56.953Z,100293.41
2022-09-18T16:57:58.529Z,100296.28
2022-09-18T17:01:00.333Z,100290.97
2022-09-18T17:04:03.269Z,100290.13
2022-09-18T17:07:06.267Z,100293.63
2022-09-18T17:10:08.700Z,100292.28
2022-09-18T17:13:10.064Z,100296.94
2022-09-18T17:16:11.485Z,100290.41
2022-09-18T17:19:13.727Z,100288.34
2022-09-18T17:22:15.111Z,100292.50
2022-09-18T17:25:16.509Z,100287.50
2022-09-18T17:28:18.277Z,100284.00
2022-09-18T17:31:19.871Z,100287.38
2022-09-18T17:34:22.011Z,100289.47
2022-09-18T17:37:23.676Z,100293.22
2022-09-18T17:40:25.336Z,100293.53
2022-09-18T17:43:27.795Z,100288.31
2022-09-18T17:46:29.320Z,100297.19
2022-09-18T17:49:32.270Z,100305.63
2022-09-18T17:52:35.624Z,100297.81
2022-09-18T17:55:37.770Z,100305.03
2022-09-18T17:58:41.237Z,100303.41
2022-09-18T18:01:46.088Z,100305.94
2022-09-18T18:04:47.532Z,100292.03
2022-09-18T18:07:48.950Z,100292.03
2022-09-18T18:10:50.325Z,100291.31
2022-09-18T18:13:53.860Z,100301.66
2022-09-18T18:16:55.252Z,100300.97
2022-09-18T18:19:56.617Z,100300.28
2022-09-18T18:22:58.061Z,100306.00
2022-09-18T18:26:04.605Z,100307.16
2022-09-18T18:29:10.837Z,100313.63
2022-09-18T18:32:12.567Z,100313.34
2022-09-18T18:35:14.393Z,100311.94
2022-09-18T18:38:17.297Z,100308.28
2022-09-18T18:41:20.622Z,100303.84
2022-09-18T18:44:23.143Z,100304.75
2022-09-18T18:47:25.400Z,100309.63
2022-09-18T18:50:32.977Z,100313.19
2022-09-18T18:53:36.048Z,100300.16
2022-09-18T18:56:38.682Z,100313.97
2022-09-18T18:59:40.586Z,100310.63
2022-09-18T19:02:41.951Z,100301.63
2022-09-18T19:05:43.400Z,100316.41
2022-09-18T19:08:47.595Z,100312.25
2022-09-18T19:11:52.287Z,100309.38
2022-09-18T19:14:53.651Z,100318.75
2022-09-18T19:17:56.334Z,100320.38
2022-09-18T19:20:58.139Z,100316.81
2022-09-18T19:23:59.517Z,100325.81
2022-09-18T19:27:00.992Z,100325.00
2022-09-18T19:30:02.375Z,100330.06
2022-09-18T19:33:03.768Z,100331.88
2022-09-18T19:36:06.591Z,100333.00
2022-09-18T19:39:11.063Z,100332.41
2022-09-18T19:42:14.786Z,100330.03
2022-09-18T19:45:23.026Z,100321.47
2022-09-18T19:48:27.021Z,100327.84
2022-09-18T19:51:30.437Z,100320.00
2022-09-18T19:54:31.921Z,100323.31
2022-09-18T19:57:33.296Z,100319.09
2022-09-18T20:00:35.292Z,100318.81
2022-09-18T20:03:37.827Z,100322.78
2022-09-18T20:06:40.387Z,100322.13
2022-09-18T20:09:41.925Z,100318.91
2022-09-18T20:12:43.340Z,100316.25
2022-09-18T20:15:45.377Z,100315.94
2022-09-18T20:18:47.977Z,100317.16
2022-09-18T20:21:50.297Z,100318.81
2022-09-18T20:24:52.897Z,100314.59
2022-09-18T20:27:54.269Z,100312.75
2022-09-18T20:30:55.632Z,100320.03
2022-09-18T20:33:58.683Z,100306.16
2022-09-18T20:37:00.141Z,100307.66
2022-09-18T20:40:03.102Z,100305.19
2022-09-18T20:43:05.479Z,100312.09
2022-09-18T20:46:11.356Z,100314.97
2022-09-18T20:49:13.131Z,100314.38
2022-09-18T20:52:14.797Z,100328.09
2022-09-18T20:55:17.406Z,100335.69
2022-09-18T20:58:18.845Z,100338.41
2022-09-18T21:01:22.963Z,100345.41
2022-09-18T21:04:24.336Z,100362.88
2022-09-18T21:07:26.178Z,100377.44
2022-09-18T21:10:29.029Z,100384.84
2022-09-18T21:13:31.244Z,100384.97
2022-09-18T21:16:35.911Z,100386.28
2022-09-18T21:19:38.374Z,100379.69
2022-09-18T21:22:59.727Z,100408.06
2022-09-18T21:26:11.895Z,100453.47
2022-09-18T21:29:25.037Z,100449.06
2022-09-18T21:32:26.396Z,100454.41
2022-09-18T21:35:27.765Z,100464.88
2022-09-18T21:38:29.279Z,100456.06
2022-09-18T21:41:35.664Z,100464.50
2022-09-18T21:44:37.748Z,100462.72
2022-09-18T21:47:39.667Z,100468.94
2022-09-18T21:50:42.543Z,100470.47
2022-09-18T21:53:44.861Z,100467.88
2022-09-18T21:56:51.201Z,100472.50
2022-09-18T21:59:52.573Z,100470.28
2022-09-18T22:02:54.687Z,100485.16
2022-09-18T22:06:00.014Z,100484.84
2022-09-18T22:09:06.796Z,100475.75
2022-09-18T22:12:09.664Z,100487.72
2022-09-18T22:15:11.084Z,100487.34
2022-09-18T22:18:12.452Z,100491.66
2022-09-18T22:21:20.588Z,100489.63
2022-09-18T22:24:24.521Z,100510.88
2022-09-18T22:27:25.882Z,100515.00
2022-09-18T22:30:27.374Z,100511.78
2022-09-18T22:33:28.745Z,100496.34
2022-09-18T22:36:30.204Z,100489.38
2022-09-18T22:39:31.630Z,100494.84
2022-09-18T22:42:32.992Z,100483.91
2022-09-18T22:45:34.405Z,100489.63
2022-09-18T22:48:36.450Z,100498.66
2022-09-18T22:51:39.743Z,100506.63
2022-09-18T22:54:41.097Z,100510.84
2022-09-18T22:57:42.461Z,100508.69
2022-09-18T23:00:43.830Z,100505.25
2022-09-18T23:03:46.796Z,100490.47
2022-09-18T23:06:48.483Z,100502.97
2022-09-18T23:09:49.845Z,100508.25
2022-09-18T23:12:51.236Z,100515.13
2022-09-18T23:15:52.669Z,100509.81
2022-09-18T23:18:59.668Z,100507.75
2022-09-18T23:22:01.555Z,100509.63
2022-09-18T23:25:02.946Z,100512.25
2022-09-18T23:28:04.299Z,100512.03
2022-09-18T23:31:20.014Z,100510.19
2022-09-18T23:34:23.833Z,100519.78
2022-09-18T23:37:25.191Z,100523.28
2022-09-18T23:40:26.592Z,100530.28
2022-09-18T23:43:28.848Z,100527.69
2022-09-18T23:46:31.069Z,100542.75
2022-09-18T23:49:33.361Z,100544.59
2022-09-18T23:52:34.739Z,100540.25
2022-09-18T23:55:36.114Z,100550.91
2022-09-18T23:58:38.782Z,100559.53
